Airfield :
LOGIN :

Register | Disclaimer

   EN    FR    IT 

 










Legend :    VFR   Marginal VFR   IFR   Intensive IFR   Very Intensive IFR
Visi :
Ceiling :
>= 8 km
>= 3000ft
5 to 8 km
1000 to 3000 ft
1500m to 5 km
500 to 1000 ft
800 to 1500m
200 to 500 ft
< 800m
< 200 ft
Symbols :   Thunderstorms  Fog  Heavy snow  Heavy precipitations  Wind > 20 kt
SIGMETs :     Misc.  Thunderstorms  Icing  Turbulence  Mountain Waves  Volcanic Ashes






- Airport Elevation : 295 ft
- IATA code : BWE


EDVE - Braunschweig

CURRENT METAR :
  • 220020Z AUTO 05003KT 350V100 9999 FEW022/// OVC072/// 02/M00 Q1025

EXPIRED METARs :
  • 212350Z AUTO 03003KT 350V090 9999 FEW024/// BKN062/// OVC072/// 02/01 Q1025
  • 212320Z AUTO VRB01KT 9999 SCT024/// OVC061/// 03/01 Q1025
  • 212250Z AUTO VRB02KT 9999 BKN058/// OVC078/// 03/01 Q1025
  • 212220Z AUTO 03003KT 330V070 9999 BKN076/// 02/01 Q1025
  • 212150Z AUTO 01003KT 320V060 9999 FEW058/// 03/01 Q1025
  • 212120Z AUTO 02003KT 280V080 9999 FEW060/// SCT074/// 03/01 Q1025
  • 212050Z AUTO VRB02KT 9999 FEW058/// BKN089/// 03/01 Q1025
  • 212020Z AUTO VRB02KT 9999 BKN098/// 04/01 Q1025
  • 211950Z AUTO 04003KT 310V090 9999 SCT071/// SCT088/// BKN099/// 04/01 Q1025

Expired Forecast.



MET'MAP, your aeronautical weather chart ! - Copyright ORBIFLY December 2007 - Disclaimer

ORBIFLY MET'MAP TEAM :

Programming & Development : Alexandra Zaïnal
Original concept : Baudouin d'Aumeries
Technical & hardware support : Manuel Goepfert
Assistance : Marc-Olivier Méhu




SOURCES & CREDITS :

   NOAA